Flight Track Log - Related Links

Times and Time Zones

All times are in EDT time to prevent confusion due to time zone crossing. See the DAL1903 flight status page for this flight to view local times or setup timezone preferences in your user account.

Time Position Orientation Groundspeed Altitude Reporting Facility
EDT Latitude Longitude Course Direction KTS MPH feet Rate Location/Type
Sat 11:19:00 AM 40.7500 -73.8167 237° Southwest 162 186 2,300  Level New York TRACON
Sat 11:20:00 AM 40.7833 -73.7667 49° Northeast 227 261 4,500 2,850 Climbing New York TRACON
Sat 11:21:00 AM 40.6296 -74.2877 244° Southwest  Level FlightAware Approximate
Sat 11:21:00 AM 40.8500 -73.7500 11° North 250 288 8,000  Level New York TRACON
Sat 11:21:54 AM 40.8833 -73.8333 298° West 306 352 10,800 2,050 Climbing New York TRACON
Sat 11:22:00 AM 40.5793 -74.4288 246° West  Level FlightAware Approximate
Sat 11:23:00 AM 40.5333 -74.5719 270° West  Level FlightAware Approximate
Sat 11:23:00 AM 40.8500 -73.9667 252° West 364 419 12,100  Level New York TRACON
Sat 11:23:54 AM 40.8333 -74.1000 261° West 413 475 13,200 1,523 Climbing New York TRACON
Sat 11:24:00 AM 40.4930 -74.7141 237° Southwest  Level FlightAware Approximate
Sat 11:26:17 AM 40.7156 -74.4233 244° Southwest 425 489 17,100  Level New York Center
Sat 11:27:17 AM 40.6533 -74.5458 236° Southwest 438 504 18,400 1,537 Climbing New York Center
Sat 11:28:18 AM 40.5800 -74.6839 235° Southwest 450 518 20,200 2,033 Climbing New York Center
Sat 11:29:18 AM 40.5047 -74.8217 234° Southwest 463 533 22,500 2,033 Climbing New York Center
Sat 11:30:19 AM 40.4147 -74.9497 227° Southwest 468 539 24,300 2,164 Climbing New York Center
Sat 11:31:20 AM 40.3267 -75.0806 229° Southwest 486 559 26,900 2,339 Climbing New York Center
Sat 11:32:17 AM 40.2406 -75.2086 229° Southwest 486 559 28,900 2,017 Climbing New York Center
Sat 11:33:19 AM 40.1544 -75.3333 228° Southwest 481 554 30,900 1,537 Climbing New York Center
Sat 11:34:18 AM 40.0706 -75.4581 229° Southwest 469 540 32,000 555 Climbing New York Center
Sat 11:35:18 AM 39.9794 -75.5928 229° Southwest 464 534 32,000  Level New York Center
Sat 11:36:18 AM 39.8975 -75.7117 228° Southwest 459 528 32,000  Level New York Center
Sat 11:37:51 AM 39.7861 -75.8911 231° Southwest 430 495 32,000  Level Washington Center
Sat 11:38:51 AM 39.7086 -76.0150 231° Southwest 430 495 32,000  Level Washington Center
Sat 11:39:50 AM 39.6333 -76.1358 231° Southwest 435 501 32,000  Level Washington Center
Sat 11:40:50 AM 39.5514 -76.2589 229° Southwest 441 507 32,000  Level Washington Center
Sat 11:41:50 AM 39.4736 -76.3819 231° Southwest 447 514 32,000  Level Washington Center
Sat 11:42:51 AM 39.3956 -76.5047 231° Southwest 447 514 32,000  Level Washington Center
Sat 11:43:49 AM 39.3050 -76.6350 228° Southwest 447 514 32,000  Level Washington Center
Sat 11:44:49 AM 39.2289 -76.7544 231° Southwest 452 520 32,000  Level Washington Center
Sat 11:45:49 AM 39.1503 -76.8764 230° Southwest 452 520 32,000  Level Washington Center
Sat 11:46:51 AM 39.0761 -76.9953 231° Southwest 447 514 32,000  Level Washington Center
Sat 11:47:51 AM 38.9853 -77.1031 223° Southwest 447 514 32,000  Level Washington Center
Sat 11:48:51 AM 38.8922 -77.2053 221° Southwest 442 509 32,000  Level Washington Center
Sat 11:49:49 AM 38.8094 -77.2967 221° Southwest 442 509 32,000  Level Washington Center
Sat 11:50:49 AM 38.7164 -77.3983 220° Southwest 442 509 32,000  Level Washington Center
Sat 11:51:51 AM 38.6231 -77.4997 220° Southwest 442 509 32,000  Level Washington Center
Sat 11:52:51 AM 38.5297 -77.6008 220° Southwest 442 509 32,000  Level Washington Center
Sat 11:53:49 AM 38.4383 -77.7017 221° Southwest 442 509 32,000  Level Washington Center
Sat 11:54:50 AM 38.3469 -77.8022 221° Southwest 442 509 32,000  Level Washington Center
Sat 11:55:50 AM 38.2533 -77.9028 220° Southwest 442 509 32,000  Level Washington Center
Sat 11:56:49 AM 38.1617 -78.0028 221° Southwest 436 502 32,000  Level Washington Center
Sat 11:57:50 AM 38.0697 -78.1028 221° Southwest 436 502 32,000  Level Washington Center
Sat 11:58:50 AM 37.9739 -78.2050 220° Southwest 430 495 32,000  Level Washington Center
Sat 11:59:50 AM 37.8867 -78.2836 215° Southwest 430 495 32,000  Level Washington Center
Sat 12:00:51 PM 37.7886 -78.3719 215° Southwest 430 495 32,000  Level Washington Center
Sat 12:01:48 PM 37.6928 -78.4603 216° Southwest 430 495 32,000  Level Washington Center
Sat 12:02:49 PM 37.5944 -78.5508 216° Southwest 435 501 32,000  Level Washington Center
Sat 12:03:49 PM 37.4897 -78.6517 217° Southwest 435 501 32,000  Level Washington Center
Sat 12:04:50 PM 37.3936 -78.7392 216° Southwest 440 506 32,000  Level Washington Center
Sat 12:05:50 PM 37.2953 -78.8264 215° Southwest 440 506 32,000  Level Washington Center
Sat 12:06:49 PM 37.1969 -78.9136 215° Southwest 440 506 32,000  Level Washington Center
Sat 12:07:50 PM 37.1006 -79.0033 217° Southwest 440 506 32,000  Level Washington Center
Sat 12:08:50 PM 37.0147 -79.0878 218° Southwest 440 506 32,000  Level Washington Center
Sat 12:09:49 PM 36.9183 -79.1769 216° Southwest 440 506 32,000  Level Washington Center
Sat 12:10:49 PM 36.8236 -79.2661 217° Southwest 440 506 32,000  Level Washington Center
Sat 12:11:50 PM 36.7292 -79.3547 217° Southwest 440 506 32,000  Level Washington Center
Sat 12:12:51 PM 36.6325 -79.4433 216° Southwest 440 506 32,000  Level Washington Center
Sat 12:14:37 PM 36.4517 -79.6044 216° Southwest 433 498 32,000  Level Atlanta Center
Sat 12:15:37 PM 36.3525 -79.6925 216° Southwest 433 498 32,000  Level Atlanta Center
Sat 12:16:37 PM 36.2556 -79.7825 217° Southwest 439 505 32,000  Level Atlanta Center
Sat 12:17:37 PM 36.1708 -79.8617 217° Southwest 434 499 32,000  Level Atlanta Center
Sat 12:18:37 PM 36.0756 -79.9436 215° Southwest 434 499 32,000  Level Atlanta Center
Sat 12:19:37 PM 35.9736 -80.0131 209° Southwest 429 494 32,000  Level Atlanta Center
Sat 12:20:37 PM 35.8647 -80.0644 201° Southwest 424 488 32,000  Level Atlanta Center
Sat 12:21:37 PM 35.7578 -80.1183 202° Southwest 424 488 32,000  Level Atlanta Center
Sat 12:22:37 PM 35.6389 -80.1803 203° Southwest 424 488 32,000  Level Atlanta Center
Sat 12:23:37 PM 35.5300 -80.2339 202° Southwest 424 488 32,000  Level Atlanta Center
Sat 12:24:37 PM 35.4231 -80.2872 202° Southwest 424 488 32,000  Level Atlanta Center
Sat 12:25:37 PM 35.3161 -80.3406 202° Southwest 424 488 32,000  Level Atlanta Center
Sat 12:26:37 PM 35.2094 -80.3936 202° Southwest 424 488 32,000  Level Atlanta Center
Sat 12:27:37 PM 35.1106 -80.4436 202° Southwest 424 488 32,000  Level Atlanta Center
Sat 12:28:37 PM 35.0017 -80.4989 203° Southwest 429 494 32,000  Level Atlanta Center
Sat 12:29:37 PM 34.8967 -80.5492 201° Southwest 429 494 32,000  Level Atlanta Center
Sat 12:31:55 PM 34.6411 -80.6794 203° Southwest 418 481 32,000  Level Jacksonville Center
Sat 12:32:55 PM 34.5294 -80.7328 201° Southwest 423 487 32,000  Level Jacksonville Center
Sat 12:33:55 PM 34.4217 -80.7858 202° Southwest 429 494 32,000  Level Jacksonville Center
Sat 12:34:55 PM 34.3122 -80.8436 204° Southwest 423 487 32,000  Level Jacksonville Center
Sat 12:35:55 PM 34.2106 -80.8889 200° South 416 479 32,000  Level Jacksonville Center
Sat 12:36:55 PM 34.1050 -80.9389 201° Southwest 410 472 32,000  Level Jacksonville Center
Sat 12:37:55 PM 33.9994 -80.9889 201° Southwest 410 472 32,000  Level Jacksonville Center
Sat 12:38:55 PM 33.8917 -81.0361 200° South 410 472 32,000  Level Jacksonville Center
Sat 12:39:55 PM 33.7900 -81.0883 203° Southwest 405 466 32,000  Level Jacksonville Center
Sat 12:40:55 PM 33.6825 -81.1456 204° Southwest 416 479 32,000  Level Jacksonville Center
Sat 12:41:55 PM 33.5767 -81.1950 201° Southwest 411 473 32,000  Level Jacksonville Center
Sat 12:42:55 PM 33.4708 -81.2517 204° Southwest 411 473 32,000  Level Jacksonville Center
Sat 12:43:55 PM 33.3867 -81.3478 224° Southwest 416 479 32,000  Level Jacksonville Center
Sat 12:44:55 PM 33.3000 -81.4361 220° Southwest 416 479 32,000  Level Jacksonville Center
Sat 12:45:55 PM 33.2114 -81.5344 223° Southwest 427 491 32,000  Level Jacksonville Center
Sat 12:46:55 PM 33.1225 -81.6325 223° Southwest 438 504 32,000  Level Jacksonville Center
Sat 12:47:55 PM 33.0358 -81.7281 223° Southwest 433 498 32,000  Level Jacksonville Center
Sat 12:48:55 PM 32.9406 -81.8058 214° Southwest 433 498 32,000  Level Jacksonville Center
Sat 12:49:55 PM 32.8239 -81.8344 192° South 425 489 32,000  Level Jacksonville Center
Sat 12:50:55 PM 32.7006 -81.8261 177° South 419 482 32,000  Level Jacksonville Center
Sat 12:51:55 PM 32.5942 -81.8150 175° South 433 498 32,000  Level Jacksonville Center
Sat 12:52:55 PM 32.4622 -81.7722 165° South 446 513 32,000  Level Jacksonville Center
Sat 12:53:55 PM 32.3536 -81.7761 182° South 445 512 32,000  Level Jacksonville Center
Sat 12:54:55 PM 32.2203 -81.8022 189° South 445 512 32,000  Level Jacksonville Center
Sat 12:55:55 PM 32.1014 -81.8281 190° South 445 512 32,000  Level Jacksonville Center
Sat 12:56:55 PM 31.9931 -81.8492 189° South 445 512 32,000  Level Jacksonville Center
Sat 12:57:55 PM 31.8617 -81.8725 189° South 445 512 32,000  Level Jacksonville Center
Sat 12:58:55 PM 31.7533 -81.8933 189° South 445 512 32,000  Level Jacksonville Center
Sat 12:59:55 PM 31.6200 -81.9192 189° South 445 512 32,000  Level Jacksonville Center
Sat 01:00:55 PM 31.4989 -81.9400 188° South 442 509 32,000  Level Jacksonville Center
Sat 01:01:55 PM 31.3928 -81.9628 190° South 442 509 32,000  Level Jacksonville Center
Sat 01:02:55 PM 31.2717 -81.9858 189° South 442 509 32,000  Level Jacksonville Center
Sat 01:03:55 PM 31.1550 -82.0089 190° South 442 509 32,000  Level Jacksonville Center
Sat 01:04:55 PM 31.0342 -82.0294 188° South 442 509 32,000  Level Jacksonville Center
Sat 01:05:55 PM 30.9153 -82.0547 190° South 442 509 32,000  Level Jacksonville Center
Sat 01:06:55 PM 30.7964 -82.0728 187° South 442 509 32,000  Level Jacksonville Center
Sat 01:07:55 PM 30.6775 -82.0956 189° South 442 509 32,000  Level Jacksonville Center
Sat 01:08:55 PM 30.5461 -82.1158 188° South 442 509 32,000  Level Jacksonville Center
Sat 01:09:55 PM 30.4250 -82.1386 189° South 447 514 32,000  Level Jacksonville Center
Sat 01:10:55 PM 30.3208 -82.1561 188° South 439 505 32,000  Level Jacksonville Center
Sat 01:11:55 PM 30.1997 -82.1789 189° South 439 505 32,000  Level Jacksonville Center
Sat 01:12:55 PM 30.0808 -82.2014 189° South 439 505 32,000  Level Jacksonville Center
Sat 01:13:55 PM 29.9475 -82.2286 190° South 439 505 32,000 -1,400 Level Jacksonville Center
Sat 01:14:55 PM 29.8286 -82.2508 189° South 439 505 29,200 -2,650 Descending Jacksonville Center
Sat 01:15:55 PM 29.7200 -82.2683 188° South 444 511 26,700 -2,200 Descending Jacksonville Center
Sat 01:16:55 PM 29.5989 -82.2597 176° South 444 511 24,800 -1,600 Descending Jacksonville Center
Sat 01:17:55 PM 29.4842 -82.2436 173° South 433 498 23,500 -1,200 Descending Jacksonville Center
Sat 01:18:55 PM 29.3692 -82.2253 172° South 428 493 22,400 -950 Descending Jacksonville Center
Sat 01:19:55 PM 29.2564 -82.2069 172° South 422 486 21,600 -800 Descending Jacksonville Center
Sat 01:20:55 PM 29.1456 -82.1911 173° South 411 473 20,800 -1,450 Descending Jacksonville Center
Sat 01:21:55 PM 29.0369 -82.1753 173° South 401 461 18,700 -2,300 Descending Jacksonville Center
Sat 01:22:55 PM 28.9306 -82.1594 173° South 396 456 16,200 -1,741 Descending Jacksonville Center
Sat 01:25:08 PM 28.7000 -82.1167 171° South 366 421 13,100 -1,259 Descending Tampa TRACON
Sat 01:26:20 PM 28.5667 -82.1000 174° South 363 418 11,900 -1,000 Descending Tampa TRACON
Sat 01:27:08 PM 28.5000 -82.1000 180° South 361 415 11,100 -474 Descending Tampa TRACON
Sat 01:28:14 PM 28.3833 -82.0833 173° South 359 413 11,000 -48 Descending Tampa TRACON
Sat 01:29:14 PM 28.2833 -82.0667 172° South 353 406 11,000  Level Tampa TRACON
Sat 01:30:14 PM 28.2000 -82.1000 199° South 352 405 11,000 50 Level Tampa TRACON
Sat 01:31:14 PM 28.1000 -82.1167 188° South 351 404 11,100 -250 Climbing Tampa TRACON
Sat 01:32:14 PM 28.0000 -82.1500 196° South 345 397 10,500 -800 Descending Tampa TRACON
Sat 01:33:14 PM 27.9333 -82.1833 204° Southwest 298 343 9,500 -1,250 Descending Tampa TRACON
Sat 01:34:14 PM 27.8500 -82.2000 190° South 295 339 8,000 -1,400 Descending Tampa TRACON
Sat 01:35:14 PM 27.7667 -82.2333 199° South 279 321 6,700 -950 Descending Tampa TRACON
Sat 01:36:14 PM 27.7167 -82.2833 222° Southwest 269 310 6,100 -333 Descending Tampa TRACON
Sat 01:37:20 PM 27.6500 -82.3500 222° Southwest 271 312 6,000 -645 Descending Tampa TRACON
Sat 01:38:15 PM 27.5833 -82.3500 180° South 268 308 4,800 -1,304 Descending Tampa TRACON
Sat 01:39:15 PM 27.5167 -82.3667 193° South 259 298 3,500 -850 Descending Tampa TRACON
Sat 01:40:15 PM 27.4500 -82.3667 180° South 187 215 3,100 -238 Descending Tampa TRACON
Sat 01:41:21 PM 27.4000 -82.3667 180° South 184 212 3,000 -476 Descending Tampa TRACON
Sat 01:42:21 PM 27.3500 -82.3667 180° South 184 212 2,100 -600 Descending Tampa TRACON
Sat 01:43:21 PM 27.3000 -82.3500 164° South 182 209 1,800 -150 Descending Tampa TRACON
Sat 01:44:21 PM 27.2667 -82.3833 222° Southwest 156 180 1,800  Level Tampa TRACON

Login

Don't have an account? Register now (free) for customized features, flight alerts, and more!